Airfield :
LOGIN :

Register | Disclaimer

   EN    FR    IT 

 










Legend :    VFR   Marginal VFR   IFR   Intensive IFR   Very Intensive IFR
Visi :
Ceiling :
>= 8 km
>= 3000ft
5 to 8 km
1000 to 3000 ft
1500m to 5 km
500 to 1000 ft
800 to 1500m
200 to 500 ft
< 800m
< 200 ft
Symbols :   Thunderstorms  Fog  Heavy snow  Heavy precipitations  Wind > 20 kt
SIGMETs :     Misc.  Thunderstorms  Icing  Turbulence  Mountain Waves  Volcanic Ashes






- Airport Elevation : 39 ft
- IATA code : ANR


EBAW - Anvers / Antwerpen Deurne

CURRENT METAR :
  • 010820Z 23005KT 190V260 9999 BKN006 16/14 Q1010 BECMG BKN012

EXPIRED METARs :
  • 010750Z 22006KT 190V260 9999 BKN006 16/14 Q1010 BECMG BKN010
  • 010720Z 23006KT 190V270 8000 BKN005 15/14 Q1010 NOSIG
  • 010650Z 22005KT 5000 BR BKN003 15/13 Q1009 NOSIG
  • 010620Z 22006KT 3500 BR BKN002 14/13 Q1009 NOSIG
  • 010550Z 22006KT 5000 BR BKN003 14/13 Q1009 NOSIG

TAF TAF EBAW
Valid from the 01 at 06:00 until the 01 at 15:00 UTC


010502Z 0106/0115 23007KT 9999 SCT020
PROB40
TEMPO 0106/0107 BKN005
PROB40
TEMPO 0109/0115 4500 SHRA
BECMG 0111/0113 29010KT
PROB30
TEMPO 0113/0115 3500 TSRA



MET'MAP, your aeronautical weather chart ! - Copyright ORBIFLY December 2007 - Disclaimer

ORBIFLY MET'MAP TEAM :

Programming & Development : Alexandra Zaïnal
Concept & original design : Baudouin d'Aumeries
Assistance for programming : Marc-Olivier Méhu
Technical & hardware support : Manuel Goepfert

Contact : metmap@orbifly.com




SOURCES & CREDITS :

   NOAA